createdAt,value
2018-08-14T00:00:10.511Z,18.80
2018-08-14T00:01:10.487Z,18.00
2018-08-14T00:02:10.476Z,18.10
2018-08-14T00:03:10.449Z,20.00
2018-08-14T00:04:10.425Z,18.30
2018-08-14T00:05:10.404Z,18.30
2018-08-14T00:06:10.383Z,19.10
2018-08-14T00:07:10.362Z,18.70
2018-08-14T00:08:10.340Z,19.10
2018-08-14T00:09:10.316Z,19.10
2018-08-14T00:10:10.295Z,17.90
2018-08-14T00:11:10.275Z,19.80
2018-08-14T00:12:10.253Z,19.40
2018-08-14T00:13:10.236Z,19.50
2018-08-14T00:14:10.220Z,18.60
2018-08-14T00:15:10.189Z,19.50
2018-08-14T00:16:10.167Z,17.60
2018-08-14T00:17:10.145Z,18.60
2018-08-14T00:18:10.130Z,20.20
2018-08-14T00:19:10.099Z,19.30
2018-08-14T00:20:10.082Z,19.20
2018-08-14T00:21:10.061Z,18.60
2018-08-14T00:22:10.040Z,20.70
2018-08-14T00:23:10.019Z,18.80
2018-08-14T00:24:09.997Z,19.20
2018-08-14T00:25:09.977Z,19.00
2018-08-14T00:26:09.959Z,18.50
2018-08-14T00:27:09.928Z,18.40
2018-08-14T00:28:09.909Z,20.00
2018-08-14T00:29:09.892Z,18.70
2018-08-14T00:30:09.865Z,19.20
2018-08-14T00:31:09.854Z,18.10
2018-08-14T00:32:09.825Z,18.30
2018-08-14T00:33:09.807Z,17.80
2018-08-14T00:34:09.785Z,18.30
2018-08-14T00:35:09.763Z,18.80
2018-08-14T00:36:09.741Z,18.10
2018-08-14T00:37:09.713Z,19.80
2018-08-14T00:38:09.704Z,17.10
2018-08-14T00:39:09.676Z,18.60
2018-08-14T00:40:09.658Z,18.90
2018-08-14T00:41:09.631Z,19.00
2018-08-14T00:42:09.615Z,19.00
2018-08-14T00:43:09.597Z,19.70
2018-08-14T00:44:09.571Z,19.60
2018-08-14T00:45:09.549Z,17.50
2018-08-14T00:46:09.529Z,19.00
2018-08-14T00:47:09.508Z,18.30
2018-08-14T00:48:09.487Z,19.30
2018-08-14T00:49:09.466Z,19.00
2018-08-14T00:50:09.442Z,18.20
2018-08-14T00:51:09.421Z,17.90
2018-08-14T00:52:09.399Z,18.00
2018-08-14T00:53:09.384Z,18.70
2018-08-14T00:54:09.361Z,20.10
2018-08-14T00:55:09.336Z,18.40
2018-08-14T00:56:09.322Z,20.20
2018-08-14T00:57:09.293Z,17.60
2018-08-14T00:58:09.278Z,18.90
2018-08-14T00:59:09.252Z,18.10
2018-08-14T01:00:09.231Z,19.50
2018-08-14T01:01:09.206Z,19.20
2018-08-14T01:02:09.185Z,17.60
2018-08-14T01:03:09.165Z,18.00
2018-08-14T01:04:09.143Z,18.60
2018-08-14T01:05:09.121Z,19.00
2018-08-14T01:06:09.101Z,19.50
2018-08-14T01:07:09.079Z,18.80
2018-08-14T01:08:09.056Z,19.50
2018-08-14T01:09:09.036Z,18.90
2018-08-14T01:10:09.012Z,19.90
2018-08-14T01:11:08.999Z,21.00
2018-08-14T01:12:08.973Z,19.50
2018-08-14T01:13:08.952Z,21.00
2018-08-14T01:14:08.929Z,20.50
2018-08-14T01:15:08.906Z,20.60
2018-08-14T01:16:08.885Z,22.30
2018-08-14T01:17:08.860Z,21.70
2018-08-14T01:18:08.846Z,20.40
2018-08-14T01:19:08.823Z,21.90
2018-08-14T01:20:08.801Z,21.20
2018-08-14T01:21:08.779Z,20.40
2018-08-14T01:22:08.761Z,19.80
2018-08-14T01:23:08.738Z,20.80
2018-08-14T01:24:08.716Z,21.90
2018-08-14T01:25:08.695Z,19.70
2018-08-14T01:26:08.673Z,19.10
2018-08-14T01:27:08.654Z,21.70
2018-08-14T01:28:08.632Z,19.90
2018-08-14T01:29:08.607Z,20.80
2018-08-14T01:30:08.590Z,19.70
2018-08-14T01:31:08.569Z,20.50
2018-08-14T01:32:08.545Z,19.80
2018-08-14T01:33:08.529Z,20.50
2018-08-14T01:34:08.510Z,19.40
2018-08-14T01:35:08.486Z,20.10
2018-08-14T01:36:08.460Z,19.00
2018-08-14T01:37:08.439Z,20.00
2018-08-14T01:38:08.426Z,19.60
2018-08-14T01:39:08.399Z,18.20
2018-08-14T01:40:08.372Z,19.00
2018-08-14T01:41:08.354Z,19.40
2018-08-14T01:42:08.334Z,18.60
2018-08-14T01:43:08.312Z,19.00
2018-08-14T01:44:08.288Z,18.70
2018-08-14T01:45:08.269Z,18.80
2018-08-14T01:46:08.254Z,20.00
2018-08-14T01:47:08.229Z,18.90
2018-08-14T01:48:08.208Z,18.10
2018-08-14T01:49:08.184Z,20.10
2018-08-14T01:50:08.161Z,19.90
2018-08-14T01:51:08.142Z,20.70
2018-08-14T01:52:08.120Z,19.70
2018-08-14T01:53:08.101Z,18.40
2018-08-14T01:54:08.077Z,19.30
2018-08-14T01:55:08.055Z,19.40
2018-08-14T01:56:08.048Z,21.20
2018-08-14T01:57:08.009Z,19.40
2018-08-14T01:58:07.992Z,20.80
2018-08-14T01:59:07.972Z,20.30
2018-08-14T02:00:07.950Z,20.40
2018-08-14T02:01:07.925Z,20.00
2018-08-14T02:02:07.912Z,18.50
2018-08-14T02:03:07.888Z,19.80
2018-08-14T02:04:07.869Z,20.10
2018-08-14T02:05:07.845Z,19.80
2018-08-14T02:06:07.822Z,20.50
2018-08-14T02:07:07.798Z,21.20
2018-08-14T02:08:07.772Z,21.00
2018-08-14T02:09:07.751Z,20.60
2018-08-14T02:10:07.735Z,21.30
2018-08-14T02:11:07.713Z,21.00
2018-08-14T02:12:07.691Z,20.50
2018-08-14T02:13:07.678Z,19.90
2018-08-14T02:14:07.651Z,20.30
2018-08-14T02:15:07.634Z,22.70
2018-08-14T02:16:07.605Z,21.40
2018-08-14T02:17:07.589Z,21.20
2018-08-14T02:18:07.563Z,21.70
2018-08-14T02:19:07.539Z,22.20
2018-08-14T02:20:07.516Z,21.90
2018-08-14T02:21:07.500Z,22.40
2018-08-14T02:22:07.479Z,21.40
2018-08-14T02:23:07.456Z,21.60
2018-08-14T02:24:07.434Z,21.40
2018-08-14T02:25:07.413Z,23.20
2018-08-14T02:26:07.392Z,22.20
2018-08-14T02:27:07.370Z,22.40
2018-08-14T02:28:07.349Z,23.70
2018-08-14T02:29:07.327Z,22.80
2018-08-14T02:30:07.310Z,21.70
2018-08-14T02:31:07.285Z,23.40
2018-08-14T02:32:07.265Z,23.00
2018-08-14T02:33:07.246Z,23.20
2018-08-14T02:34:07.224Z,22.70
2018-08-14T02:35:07.202Z,22.70
2018-08-14T02:36:07.179Z,22.50
2018-08-14T02:37:07.153Z,22.80
2018-08-14T02:38:07.137Z,24.00
2018-08-14T02:39:07.115Z,23.50
2018-08-14T02:40:07.095Z,24.40
2018-08-14T02:41:07.071Z,23.50
2018-08-14T02:42:07.058Z,25.20
2018-08-14T02:43:07.035Z,25.50
2018-08-14T02:44:07.015Z,25.40
2018-08-14T02:45:06.988Z,26.60
2018-08-14T02:46:06.980Z,25.50
2018-08-14T02:47:06.951Z,25.50
2018-08-14T02:48:06.925Z,26.50
2018-08-14T02:49:06.904Z,26.50
2018-08-14T02:50:06.927Z,27.00
2018-08-14T02:51:06.861Z,25.80
2018-08-14T02:52:06.839Z,25.60
2018-08-14T02:53:06.822Z,27.10
2018-08-14T02:54:06.804Z,26.90
2018-08-14T02:55:06.777Z,26.60
2018-08-14T02:56:06.756Z,26.20
2018-08-14T02:57:06.735Z,26.20
2018-08-14T02:58:06.713Z,26.60
2018-08-14T02:59:06.687Z,26.50
2018-08-14T03:00:06.712Z,26.40
2018-08-14T03:01:06.648Z,26.70
2018-08-14T03:02:06.629Z,26.80
2018-08-14T03:03:06.607Z,27.50
2018-08-14T03:04:06.590Z,27.40
2018-08-14T03:05:06.636Z,25.40
2018-08-14T03:06:06.544Z,25.70
2018-08-14T03:07:06.521Z,28.30
2018-08-14T03:08:06.502Z,28.20
2018-08-14T03:09:06.480Z,28.50
2018-08-14T03:10:06.455Z,28.00
2018-08-14T03:11:06.441Z,28.50
2018-08-14T03:12:06.416Z,29.10
2018-08-14T03:13:06.398Z,28.90
2018-08-14T03:14:06.373Z,28.40
2018-08-14T03:15:06.364Z,29.20
2018-08-14T03:16:06.332Z,31.00
2018-08-14T03:17:06.304Z,29.10
2018-08-14T03:18:06.295Z,29.80
2018-08-14T03:19:06.272Z,30.60
2018-08-14T03:20:06.247Z,28.80
2018-08-14T03:21:06.228Z,28.20
2018-08-14T03:22:06.205Z,31.70
2018-08-14T03:23:06.189Z,31.40
2018-08-14T03:24:06.165Z,30.80
2018-08-14T03:25:06.141Z,31.90
2018-08-14T03:26:06.127Z,30.60
2018-08-14T03:27:06.107Z,32.10
2018-08-14T03:28:06.078Z,31.30
2018-08-14T03:29:06.058Z,34.00
2018-08-14T03:30:06.037Z,32.90
2018-08-14T03:31:06.016Z,31.20
2018-08-14T03:32:05.998Z,32.50
2018-08-14T03:33:05.972Z,33.00
2018-08-14T03:34:05.960Z,32.70
2018-08-14T03:35:05.937Z,31.30
2018-08-14T03:36:05.909Z,33.60
2018-08-14T03:37:05.892Z,34.20
2018-08-14T03:38:05.876Z,33.80
2018-08-14T03:39:05.847Z,33.20
2018-08-14T03:40:05.827Z,34.00
2018-08-14T03:41:05.806Z,33.20
2018-08-14T03:42:05.786Z,33.90
2018-08-14T03:43:05.765Z,34.00
2018-08-14T03:44:05.741Z,32.60
2018-08-14T03:45:05.728Z,34.60
2018-08-14T03:46:05.705Z,33.80
2018-08-14T03:47:05.678Z,35.60
2018-08-14T03:48:05.661Z,34.70
2018-08-14T03:49:05.639Z,34.00
2018-08-14T03:50:05.622Z,32.90
2018-08-14T03:51:05.597Z,33.90
2018-08-14T03:52:05.576Z,34.60
2018-08-14T03:53:05.558Z,34.40
2018-08-14T03:54:05.534Z,34.30
2018-08-14T03:55:05.514Z,32.00
2018-08-14T03:56:05.494Z,34.40
2018-08-14T03:57:05.476Z,34.60
2018-08-14T03:58:05.451Z,35.10
2018-08-14T03:59:05.431Z,37.00
2018-08-14T04:00:05.409Z,36.40
2018-08-14T04:01:05.388Z,37.00
2018-08-14T04:02:05.367Z,37.80
2018-08-14T04:03:05.356Z,37.20
2018-08-14T04:04:05.325Z,36.40
2018-08-14T04:05:05.304Z,40.00
2018-08-14T04:06:05.298Z,39.40
2018-08-14T04:07:05.265Z,38.70
2018-08-14T04:08:05.241Z,39.20
2018-08-14T04:09:05.216Z,39.20
2018-08-14T04:10:05.199Z,39.50
2018-08-14T04:11:05.178Z,40.40
2018-08-14T04:12:05.159Z,41.10
2018-08-14T04:13:05.137Z,41.90
2018-08-14T04:14:05.166Z,41.80
2018-08-14T04:15:05.093Z,43.10
2018-08-14T04:16:05.071Z,44.20
2018-08-14T04:17:05.044Z,41.80
2018-08-14T04:18:05.029Z,42.00
2018-08-14T04:19:05.012Z,41.10
2018-08-14T04:20:04.984Z,42.20
2018-08-14T04:21:04.969Z,42.80
2018-08-14T04:22:04.943Z,44.80
2018-08-14T04:23:04.931Z,43.80
2018-08-14T04:24:04.900Z,46.00
2018-08-14T04:25:04.881Z,43.50
2018-08-14T04:26:04.857Z,45.10
2018-08-14T04:27:04.841Z,43.70
2018-08-14T04:28:04.820Z,44.80
2018-08-14T04:29:04.796Z,45.10
2018-08-14T04:30:04.773Z,44.00
2018-08-14T04:31:04.751Z,44.00
2018-08-14T04:32:04.738Z,44.90
2018-08-14T04:33:04.717Z,43.90
2018-08-14T04:34:04.693Z,42.90
2018-08-14T04:35:04.676Z,43.00
2018-08-14T04:36:04.645Z,46.10
2018-08-14T04:37:04.629Z,45.70
2018-08-14T04:38:04.602Z,47.60
2018-08-14T04:39:04.584Z,46.80
2018-08-14T04:40:04.561Z,43.70
2018-08-14T04:41:04.538Z,42.90
2018-08-14T04:42:04.519Z,43.80
2018-08-14T04:43:04.507Z,46.80
2018-08-14T04:44:04.476Z,46.20
2018-08-14T04:45:04.453Z,44.80
2018-08-14T04:46:04.437Z,44.80
2018-08-14T04:47:04.412Z,47.30
2018-08-14T04:48:04.389Z,48.00
2018-08-14T04:49:04.365Z,45.90
2018-08-14T04:50:04.347Z,45.70
2018-08-14T04:51:04.327Z,46.20
2018-08-14T04:52:04.306Z,45.30
2018-08-14T04:53:04.284Z,44.70
2018-08-14T04:54:04.264Z,47.50
2018-08-14T04:55:04.239Z,48.10
2018-08-14T04:56:04.222Z,47.50
2018-08-14T04:57:04.198Z,46.80
2018-08-14T04:58:04.177Z,46.20
2018-08-14T04:59:04.162Z,45.60
2018-08-14T05:00:04.137Z,46.80
2018-08-14T05:01:04.128Z,46.10
2018-08-14T05:02:04.093Z,45.20
2018-08-14T05:03:04.072Z,44.30
2018-08-14T05:04:04.048Z,46.40
2018-08-14T05:05:04.037Z,46.00
2018-08-14T05:06:04.008Z,45.30
2018-08-14T05:07:03.978Z,44.70
2018-08-14T05:08:03.960Z,46.20
2018-08-14T05:09:04.027Z,45.70
2018-08-14T05:10:03.922Z,45.40
2018-08-14T05:11:03.900Z,44.50
2018-08-14T05:12:03.888Z,44.80
2018-08-14T05:13:03.894Z,47.60
2018-08-14T05:14:03.840Z,46.90
2018-08-14T05:15:03.816Z,49.00
2018-08-14T05:16:03.795Z,47.80
2018-08-14T05:17:03.774Z,46.40
2018-08-14T05:18:03.752Z,47.90
2018-08-14T05:19:03.729Z,46.60
2018-08-14T05:20:03.710Z,45.40
2018-08-14T05:21:03.689Z,46.40
2018-08-14T05:22:03.664Z,47.70
2018-08-14T05:23:03.651Z,47.30
2018-08-14T05:24:03.628Z,46.30
2018-08-14T05:25:03.610Z,49.90
2018-08-14T05:26:03.583Z,49.90
2018-08-14T05:27:03.560Z,48.50
2018-08-14T05:28:03.539Z,48.30
2018-08-14T05:29:03.511Z,46.70
2018-08-14T05:30:03.499Z,46.30
2018-08-14T05:31:03.474Z,46.90
2018-08-14T05:32:03.453Z,45.90
2018-08-14T05:33:03.431Z,50.10
2018-08-14T05:34:03.422Z,47.40
2018-08-14T05:35:03.399Z,48.70
2018-08-14T05:36:03.368Z,46.90
2018-08-14T05:37:03.349Z,47.40
2018-08-14T05:38:03.328Z,47.60
2018-08-14T05:39:03.306Z,46.80
2018-08-14T05:40:03.278Z,45.90
2018-08-14T05:41:03.259Z,44.50
2018-08-14T05:42:03.240Z,44.50
2018-08-14T05:43:03.220Z,44.10
2018-08-14T05:44:03.197Z,45.10
2018-08-14T05:45:03.176Z,43.10
2018-08-14T05:46:03.162Z,44.80
2018-08-14T05:47:03.138Z,43.60
2018-08-14T05:48:03.114Z,45.30
2018-08-14T05:49:03.092Z,43.80
2018-08-14T05:50:03.073Z,43.50
2018-08-14T05:51:03.046Z,42.80
2018-08-14T05:52:03.028Z,41.00
2018-08-14T05:53:03.107Z,44.50
2018-08-14T05:54:02.990Z,42.60
2018-08-14T05:55:02.969Z,44.10
2018-08-14T05:56:02.956Z,43.20
2018-08-14T05:57:02.926Z,43.60
2018-08-14T05:58:02.905Z,43.00
2018-08-14T05:59:02.884Z,42.90
2018-08-14T06:00:02.863Z,41.20
2018-08-14T06:01:02.841Z,41.10
2018-08-14T06:02:02.816Z,43.90
2018-08-14T06:03:02.799Z,41.70
2018-08-14T06:04:02.783Z,43.20
2018-08-14T06:05:02.757Z,43.80
2018-08-14T06:06:02.735Z,40.50
2018-08-14T06:07:02.716Z,41.10
2018-08-14T06:08:02.710Z,42.00
2018-08-14T06:09:02.679Z,40.90
2018-08-14T06:10:02.655Z,40.00
2018-08-14T06:11:02.636Z,38.70
2018-08-14T06:12:02.619Z,38.30
2018-08-14T06:13:02.585Z,37.00
2018-08-14T06:14:02.573Z,39.80
2018-08-14T06:15:02.550Z,37.60
2018-08-14T06:16:02.529Z,39.00
2018-08-14T06:17:02.591Z,38.20
2018-08-14T06:18:02.486Z,41.90
2018-08-14T06:19:02.468Z,37.50
2018-08-14T06:20:02.449Z,36.40
2018-08-14T06:21:02.426Z,36.60
2018-08-14T06:22:02.435Z,35.90
2018-08-14T06:23:02.385Z,36.20
2018-08-14T06:24:02.360Z,36.10
2018-08-14T06:25:02.348Z,35.20
2018-08-14T06:26:02.324Z,36.80
2018-08-14T06:27:02.303Z,35.30
2018-08-14T06:28:02.276Z,29.60
2018-08-14T06:29:02.261Z,29.80
2018-08-14T06:30:02.245Z,31.60
2018-08-14T06:31:02.224Z,29.60
2018-08-14T06:32:02.197Z,31.30
2018-08-14T06:33:02.180Z,28.80
2018-08-14T06:34:02.168Z,26.70
2018-08-14T06:35:02.140Z,25.10
2018-08-14T06:36:02.116Z,26.00
2018-08-14T06:37:02.098Z,26.60
2018-08-14T06:38:02.076Z,23.80
2018-08-14T06:39:02.054Z,23.70
2018-08-14T06:40:02.035Z,23.80
2018-08-14T06:41:02.017Z,22.90
2018-08-14T06:42:01.998Z,23.10
2018-08-14T06:43:01.973Z,20.30
2018-08-14T06:44:01.959Z,21.40
2018-08-14T06:45:01.942Z,21.90
2018-08-14T06:46:01.913Z,22.50
2018-08-14T06:47:01.890Z,22.80
2018-08-14T06:48:01.873Z,22.20
2018-08-14T06:49:01.862Z,21.70
2018-08-14T06:50:01.844Z,23.40
2018-08-14T06:51:01.810Z,22.70
2018-08-14T06:52:01.789Z,21.80
2018-08-14T06:53:01.769Z,22.80
2018-08-14T06:54:01.745Z,22.60
2018-08-14T06:55:01.734Z,24.10
2018-08-14T06:56:01.707Z,24.20
2018-08-14T06:57:01.688Z,23.80
2018-08-14T06:58:01.662Z,22.60
2018-08-14T06:59:01.652Z,21.20
2018-08-14T07:00:01.625Z,19.30
2018-08-14T07:01:01.605Z,19.10
2018-08-14T07:02:01.584Z,19.20
2018-08-14T07:03:01.565Z,19.30
2018-08-14T07:04:01.543Z,18.50
2018-08-14T07:05:01.520Z,17.70
2018-08-14T07:06:01.501Z,17.50
2018-08-14T07:07:01.484Z,16.30
2018-08-14T07:08:01.463Z,17.70
2018-08-14T07:09:01.444Z,16.50
2018-08-14T07:10:01.431Z,16.80
2018-08-14T07:11:01.405Z,16.80
2018-08-14T07:12:01.385Z,16.40
2018-08-14T07:13:01.358Z,13.80
2018-08-14T07:14:01.340Z,12.00
2018-08-14T07:15:01.325Z,11.30
2018-08-14T07:16:01.305Z,11.40
2018-08-14T07:17:01.285Z,12.20
2018-08-14T07:18:01.265Z,11.90
2018-08-14T07:19:01.243Z,11.30
2018-08-14T07:20:01.223Z,11.80
2018-08-14T07:21:01.201Z,10.30
2018-08-14T07:22:01.184Z,9.50
2018-08-14T07:23:01.165Z,8.10
2018-08-14T07:24:01.144Z,8.50
2018-08-14T07:25:01.125Z,7.90
2018-08-14T07:26:01.132Z,7.80
2018-08-14T07:27:01.089Z,7.90
2018-08-14T07:28:01.065Z,7.80
2018-08-14T07:29:01.047Z,7.80
2018-08-14T07:30:01.039Z,6.80
2018-08-14T07:31:01.015Z,6.60
2018-08-14T07:32:00.987Z,5.20
2018-08-14T07:33:00.970Z,5.60
2018-08-14T07:34:00.966Z,5.90
2018-08-14T07:35:00.933Z,5.20
2018-08-14T07:36:00.910Z,5.30
2018-08-14T07:37:00.899Z,4.30
2018-08-14T07:38:00.874Z,4.20
2018-08-14T07:39:00.855Z,4.50
2018-08-14T07:40:00.835Z,4.50
2018-08-14T07:41:00.817Z,4.60
2018-08-14T07:42:00.799Z,3.80
2018-08-14T07:43:00.778Z,4.10
2018-08-14T07:44:00.760Z,3.90
2018-08-14T07:45:00.739Z,3.90
2018-08-14T07:46:00.721Z,3.40
2018-08-14T07:47:00.701Z,4.00
2018-08-14T07:48:00.681Z,3.80
2018-08-14T07:49:00.661Z,3.90
2018-08-14T07:50:00.665Z,3.80
2018-08-14T07:51:00.623Z,4.30
2018-08-14T07:52:00.603Z,3.80
2018-08-14T07:53:00.659Z,4.40
2018-08-14T07:54:00.568Z,4.20
2018-08-14T07:55:00.546Z,3.80
2018-08-14T07:56:00.544Z,4.60
2018-08-14T07:57:00.512Z,3.90
2018-08-14T07:58:00.497Z,4.90
2018-08-14T07:59:00.465Z,4.90
2018-08-14T08:00:00.446Z,5.20
2018-08-14T08:01:00.430Z,4.10
2018-08-14T08:02:00.410Z,4.60
2018-08-14T08:03:00.390Z,4.30
2018-08-14T08:04:00.369Z,4.70
2018-08-14T08:05:00.362Z,4.20
2018-08-14T08:06:00.383Z,4.00
2018-08-14T08:07:00.311Z,3.80
2018-08-14T08:08:00.292Z,3.60
2018-08-14T08:09:00.297Z,3.40
2018-08-14T08:10:00.255Z,3.90
2018-08-14T08:11:00.239Z,3.10
2018-08-14T08:12:00.243Z,3.40
2018-08-14T08:13:00.200Z,3.10
2018-08-14T08:14:00.181Z,3.40
2018-08-14T08:15:00.170Z,3.50
2018-08-14T08:16:00.142Z,3.10
2018-08-14T08:17:00.125Z,2.90
2018-08-14T08:18:00.105Z,2.80
2018-08-14T08:19:00.086Z,3.00
2018-08-14T08:20:00.069Z,3.20
2018-08-14T08:21:00.050Z,3.20
2018-08-14T08:22:00.031Z,2.70
2018-08-14T08:23:00.015Z,2.80
2018-08-14T08:23:59.991Z,2.50
2018-08-14T08:24:59.975Z,3.30
2018-08-14T08:25:59.954Z,2.80
2018-08-14T08:26:59.984Z,2.70
2018-08-14T08:27:59.929Z,2.80
2018-08-14T08:28:59.901Z,2.50
2018-08-14T08:29:59.879Z,2.80
2018-08-14T08:30:59.860Z,2.70
2018-08-14T08:31:59.842Z,3.00
2018-08-14T08:32:59.835Z,2.50
2018-08-14T08:33:59.849Z,2.40
2018-08-14T08:34:59.785Z,2.40
2018-08-14T08:35:59.763Z,2.30
2018-08-14T08:36:59.754Z,2.50
2018-08-14T08:37:59.733Z,2.20
2018-08-14T08:38:59.706Z,2.50
2018-08-14T08:39:59.687Z,2.60
2018-08-14T08:40:59.676Z,2.70
2018-08-14T08:41:59.666Z,3.20
2018-08-14T08:42:59.631Z,2.60
2018-08-14T08:43:59.611Z,2.40
2018-08-14T08:44:59.592Z,3.30
2018-08-14T08:45:59.591Z,2.30
2018-08-14T08:46:59.565Z,2.40
2018-08-14T08:47:59.535Z,2.50
2018-08-14T08:48:59.552Z,2.90
2018-08-14T08:49:59.507Z,2.80
2018-08-14T08:50:59.486Z,2.90
2018-08-14T08:51:59.463Z,2.80
2018-08-14T08:52:59.460Z,3.00
2018-08-14T08:53:59.430Z,2.90
2018-08-14T08:54:59.428Z,2.80
2018-08-14T08:55:59.391Z,2.40
2018-08-14T08:56:59.375Z,2.90
2018-08-14T08:57:59.369Z,2.80
2018-08-14T08:58:59.342Z,3.10
2018-08-14T08:59:59.335Z,2.90
2018-08-14T09:00:59.318Z,2.90
2018-08-14T09:01:59.293Z,3.30
2018-08-14T09:02:59.277Z,3.50
2018-08-14T09:03:59.327Z,3.00
2018-08-14T09:04:59.250Z,3.30
2018-08-14T09:05:59.230Z,3.20
2018-08-14T09:06:59.211Z,2.80
2018-08-14T09:07:59.193Z,3.30
2018-08-14T09:08:59.175Z,2.90
2018-08-14T09:09:59.158Z,2.70
2018-08-14T09:10:59.142Z,2.70
2018-08-14T09:11:59.127Z,3.00
2018-08-14T09:12:59.158Z,2.90
2018-08-14T09:13:59.095Z,3.40
2018-08-14T09:14:59.077Z,3.00
2018-08-14T09:15:59.061Z,3.10
2018-08-14T09:16:59.041Z,2.80
2018-08-14T09:17:59.025Z,3.00
2018-08-14T09:18:59.009Z,2.60
2018-08-14T09:19:58.996Z,2.90
2018-08-14T09:20:58.974Z,2.70
2018-08-14T09:21:58.955Z,3.20
2018-08-14T09:22:58.944Z,2.70
2018-08-14T09:23:58.926Z,2.60
2018-08-14T09:24:58.905Z,3.10
2018-08-14T09:25:58.891Z,3.20
2018-08-14T09:26:58.875Z,2.60
2018-08-14T09:27:58.861Z,2.70
2018-08-14T09:28:58.842Z,2.70
2018-08-14T09:29:58.834Z,2.30
2018-08-14T09:30:58.812Z,2.10
2018-08-14T09:31:58.795Z,2.30
2018-08-14T09:32:58.780Z,2.30
2018-08-14T09:33:58.761Z,2.00
2018-08-14T09:34:58.750Z,2.10
2018-08-14T09:35:58.730Z,2.70
2018-08-14T09:36:58.737Z,2.50
2018-08-14T09:37:58.697Z,2.00
2018-08-14T09:38:58.677Z,2.00
2018-08-14T09:39:58.664Z,2.20
2018-08-14T09:40:58.656Z,2.30
2018-08-14T09:41:58.629Z,2.80
2018-08-14T09:42:58.612Z,2.50
2018-08-14T09:43:58.596Z,1.90
2018-08-14T09:44:58.588Z,2.20
2018-08-14T09:45:58.561Z,2.00
2018-08-14T09:46:58.589Z,2.00
2018-08-14T09:47:58.522Z,1.90
2018-08-14T09:48:58.510Z,2.00
2018-08-14T09:49:58.493Z,2.00
2018-08-14T09:50:58.477Z,2.00
2018-08-14T09:51:58.461Z,1.90
2018-08-14T09:52:58.444Z,1.90
2018-08-14T09:53:58.499Z,2.00
2018-08-14T09:54:58.433Z,2.10
2018-08-14T09:55:58.406Z,2.00
2018-08-14T09:56:58.378Z,1.90
2018-08-14T09:57:58.370Z,1.90
2018-08-14T09:58:58.352Z,1.80
2018-08-14T09:59:58.335Z,1.70
2018-08-14T10:00:58.325Z,1.80
2018-08-14T10:01:58.305Z,1.60
2018-08-14T10:02:58.289Z,1.60
2018-08-14T10:03:58.278Z,2.80
2018-08-14T10:04:58.261Z,2.20
2018-08-14T10:05:58.247Z,1.70
2018-08-14T10:06:58.234Z,1.40
2018-08-14T10:07:58.272Z,2.00
2018-08-14T10:08:58.203Z,1.60
2018-08-14T10:09:58.187Z,1.70
2018-08-14T10:10:58.171Z,4.80
2018-08-14T10:11:58.162Z,2.60
2018-08-14T10:12:58.141Z,1.80
2018-08-14T10:13:58.126Z,1.30
2018-08-14T10:14:58.114Z,1.70
2018-08-14T10:15:58.095Z,1.70
2018-08-14T10:16:58.083Z,1.80
2018-08-14T10:17:58.064Z,1.70
2018-08-14T10:18:58.048Z,1.70
2018-08-14T10:19:58.057Z,1.90
2018-08-14T10:20:58.016Z,1.70
2018-08-14T10:21:58.000Z,1.90
2018-08-14T10:22:57.991Z,1.80
2018-08-14T10:23:57.968Z,1.80
2018-08-14T10:24:57.953Z,2.20
2018-08-14T10:25:57.933Z,1.80
2018-08-14T10:26:57.917Z,1.70
2018-08-14T10:27:57.903Z,1.70
2018-08-14T10:28:57.962Z,2.10
2018-08-14T10:29:57.866Z,1.80
2018-08-14T10:30:57.851Z,1.70
2018-08-14T10:31:57.833Z,2.30
2018-08-14T10:32:57.821Z,1.70
2018-08-14T10:33:57.799Z,1.70
2018-08-14T10:34:57.781Z,1.80
2018-08-14T10:35:57.764Z,1.60
2018-08-14T10:36:57.760Z,1.90
2018-08-14T10:37:57.729Z,1.70
2018-08-14T10:38:57.718Z,1.50
2018-08-14T10:39:57.732Z,1.60
2018-08-14T10:40:57.676Z,1.90
2018-08-14T10:41:57.660Z,2.10
2018-08-14T10:42:57.645Z,2.10
2018-08-14T10:43:57.961Z,1.80
2018-08-14T10:44:57.780Z,1.50
2018-08-14T10:45:57.589Z,1.60
2018-08-14T10:46:57.571Z,1.90
2018-08-14T10:47:57.553Z,1.70
2018-08-14T10:48:57.533Z,1.80
2018-08-14T10:49:57.512Z,1.90
2018-08-14T10:50:57.500Z,1.80
2018-08-14T10:51:57.482Z,1.90
2018-08-14T10:52:57.475Z,1.90
2018-08-14T10:53:57.446Z,1.50
2018-08-14T10:54:57.428Z,1.40
2018-08-14T10:55:57.409Z,1.50
2018-08-14T10:56:57.391Z,2.30
2018-08-14T10:57:57.424Z,1.80
2018-08-14T10:58:57.356Z,1.40
2018-08-14T10:59:57.339Z,1.50
2018-08-14T11:00:57.322Z,1.60
2018-08-14T11:01:57.308Z,1.60
2018-08-14T11:02:57.285Z,1.80
2018-08-14T11:03:57.273Z,1.70
2018-08-14T11:04:57.358Z,1.50
2018-08-14T11:05:57.240Z,1.30
2018-08-14T11:06:57.213Z,1.60
2018-08-14T11:07:57.196Z,1.60
2018-08-14T11:08:57.179Z,1.40
2018-08-14T11:09:57.164Z,1.10
2018-08-14T11:10:57.146Z,1.20
2018-08-14T11:11:57.129Z,1.40
2018-08-14T11:12:57.111Z,1.50
2018-08-14T11:13:57.096Z,1.50
2018-08-14T11:14:57.078Z,1.80
2018-08-14T11:15:57.060Z,1.50
2018-08-14T11:16:57.045Z,1.30
2018-08-14T11:17:57.029Z,1.60
2018-08-14T11:18:57.015Z,1.60
2018-08-14T11:19:56.994Z,1.10
2018-08-14T11:20:56.982Z,1.10
2018-08-14T11:21:56.959Z,1.30
2018-08-14T11:22:56.941Z,1.40
2018-08-14T11:23:56.929Z,1.60
2018-08-14T11:24:56.911Z,1.40
2018-08-14T11:25:56.896Z,1.30
2018-08-14T11:26:56.877Z,1.30
2018-08-14T11:27:56.860Z,1.30
2018-08-14T11:28:56.840Z,1.40
2018-08-14T11:29:56.823Z,1.30
2018-08-14T11:30:56.808Z,1.50
2018-08-14T11:31:56.793Z,1.70
2018-08-14T11:32:56.774Z,2.20
2018-08-14T11:33:56.771Z,1.40
2018-08-14T11:34:56.742Z,1.70
2018-08-14T11:35:56.728Z,1.40
2018-08-14T11:36:56.708Z,1.50
2018-08-14T11:37:56.695Z,1.50
2018-08-14T11:38:56.676Z,1.60
2018-08-14T11:39:56.777Z,1.30
2018-08-14T11:40:56.643Z,1.50
2018-08-14T11:41:56.625Z,1.70
2018-08-14T11:42:56.614Z,1.70
2018-08-14T11:43:56.631Z,1.60
2018-08-14T11:44:56.634Z,1.70
2018-08-14T11:45:56.558Z,1.80
2018-08-14T11:46:56.577Z,1.40
2018-08-14T11:47:56.574Z,1.30
2018-08-14T11:48:56.563Z,1.80
2018-08-14T11:49:56.545Z,1.80
2018-08-14T11:50:56.635Z,1.60
2018-08-14T11:51:56.491Z,1.30
2018-08-14T11:52:56.504Z,1.30
2018-08-14T11:53:56.480Z,1.70
2018-08-14T11:54:56.468Z,1.40
2018-08-14T11:55:56.423Z,1.60
2018-08-14T11:56:56.430Z,1.40
2018-08-14T11:57:56.404Z,1.50
2018-08-14T11:58:56.348Z,1.50
2018-08-14T11:59:56.390Z,2.40
2018-08-14T12:00:56.376Z,1.50
2018-08-14T12:01:56.362Z,1.50
2018-08-14T12:02:56.347Z,1.70
2018-08-14T12:03:56.295Z,1.50
2018-08-14T12:04:56.266Z,1.80
2018-08-14T12:05:56.293Z,1.20
2018-08-14T12:06:56.293Z,1.50
2018-08-14T12:07:56.261Z,1.60
2018-08-14T12:08:56.266Z,1.20
2018-08-14T12:09:56.255Z,1.70
2018-08-14T12:10:56.272Z,1.50
2018-08-14T12:11:56.173Z,1.50
2018-08-14T12:12:56.204Z,1.40
2018-08-14T12:13:56.180Z,1.70
2018-08-14T12:14:56.191Z,1.30
2018-08-14T12:15:56.125Z,1.40
2018-08-14T12:16:56.107Z,1.50
2018-08-14T12:17:56.116Z,1.50
2018-08-14T12:18:56.106Z,1.50
2018-08-14T12:19:56.100Z,1.40
2018-08-14T12:20:56.982Z,1.50
2018-08-14T12:21:56.083Z,1.50
2018-08-14T12:22:56.052Z,1.30
2018-08-14T12:23:56.025Z,1.50
2018-08-14T12:24:56.063Z,1.60
2018-08-14T12:25:56.053Z,1.20
2018-08-14T12:26:56.050Z,1.40
2018-08-14T12:27:56.023Z,1.60
2018-08-14T12:28:56.025Z,1.60
2018-08-14T12:29:55.963Z,1.50
2018-08-14T12:30:56.006Z,2.10
2018-08-14T12:31:55.971Z,1.40
2018-08-14T12:32:55.978Z,1.00
2018-08-14T12:33:55.923Z,1.40
2018-08-14T12:34:55.927Z,1.20
2018-08-14T12:35:55.936Z,1.30
2018-08-14T12:36:55.938Z,1.20
2018-08-14T12:37:55.884Z,1.40
2018-08-14T12:38:55.906Z,1.10
2018-08-14T12:39:55.866Z,0.90
2018-08-14T12:40:55.875Z,1.50
2018-08-14T12:41:55.899Z,1.60
2018-08-14T12:42:55.829Z,1.20
2018-08-14T12:43:55.824Z,1.70
2018-08-14T12:44:55.871Z,1.00
2018-08-14T12:45:55.841Z,1.10
2018-08-14T12:46:55.837Z,1.30
2018-08-14T12:47:55.821Z,1.10
2018-08-14T12:48:55.802Z,1.20
2018-08-14T12:49:55.845Z,1.30
2018-08-14T12:50:55.753Z,1.20
2018-08-14T12:51:55.801Z,1.20
2018-08-14T12:52:55.740Z,1.10
2018-08-14T12:53:55.736Z,1.50
2018-08-14T12:54:55.725Z,1.10
2018-08-14T12:55:55.726Z,2.10
2018-08-14T12:56:55.737Z,1.10
2018-08-14T12:57:55.742Z,1.40
2018-08-14T12:58:55.739Z,1.10
2018-08-14T12:59:55.682Z,1.30
2018-08-14T13:00:55.733Z,1.10
2018-08-14T13:01:55.805Z,0.90
2018-08-14T13:02:55.707Z,1.10